Welcome to Northern Hawkes Bay. New Zealand.
PWS Header
      nz Flag



Hit Counter


W3C Valid W3C Valid logo


    Wairoa

Select any of the Stations below to visit their websites.










Historic Data from Weather Underground
Select the location of interest below. Wairoa is the default. Please have patience, this Data is slow to load in.
Northern Hawkes Bay Historical Data
Daily Summary for January 21, 2017 Units:  English    Metric   Both
« Previous Day
Next Day »
Daily Weekly Monthly Yearly Custom
  High: Low: Average:
Temperature: 76.3 °F 45 °F 62.1 °F
Dew Point: 54.7 °F 44.1 °F 48.4 °F
Humidity: 97% 35% 65%
Wind Speed: 13.6mph 0mph 5.2mph
Wind Gust: 25.9mph - -
Wind- - SSW
Pressure: 30 in 29.7 in -
Precipitation: 0 in    
Historical Graphs
 
 
Tabular Data for January 21, 2017
Time Temperature Dew Point Pressure Wind Wind Speed Wind Gust Humidity Rainfall Rate (Hourly) solar
00:03 50.5 °F 46.6 °F 29.9 in NW 4.5 mph 5.4 mph 86% 0 in 0 W/m2
00:08 50.7 °F 46.8 °F 29.9 in NW 3.1 mph 6.9 mph 86% 0 in 0 W/m2
00:13 50.5 °F 46.6 °F 29.9 in NW 3.1 mph 6.9 mph 86% 0 in 0 W/m2
00:18 50.4 °F 46.2 °F 29.9 in NW 3.1 mph 6 mph 86% 0 in 0 W/m2
00:23 50.2 °F 46.2 °F 29.9 in NW 4.5 mph 5.4 mph 86% 0 in 0 W/m2
00:28 50.2 °F 46.6 °F 29.9 in NW 3.8 mph 6 mph 87% 0 in 0 W/m2
00:33 50.2 °F 46.6 °F 29.9 in NW 1.6 mph 6 mph 87% 0 in 0 W/m2
00:38 50.2 °F 46.6 °F 29.9 in NNW 2.2 mph 5.4 mph 87% 0 in 0 W/m2
00:43 50.2 °F 46.6 °F 29.9 in NNW 2.2 mph 4.5 mph 87% 0 in 0 W/m2
00:48 50.2 °F 46.6 °F 29.9 in NNW 2.2 mph 4.5 mph 87% 0 in 0 W/m2
00:53 50 °F 46.2 °F 29.9 in NW 3.1 mph 4.5 mph 87% 0 in 0 W/m2
00:58 49.8 °F 46.4 °F 29.9 in NW 1.6 mph 4.5 mph 88% 0 in 0 W/m2
01:03 49.6 °F 46.2 °F 29.9 in NW 2.2 mph 4.5 mph 88% 0 in 0 W/m2
01:08 49.3 °F 46.2 °F 29.9 in NW 3.8 mph 6 mph 89% 0 in 0 W/m2
01:13 49.3 °F 46.2 °F 29.9 in NW 3.1 mph 6 mph 89% 0 in 0 W/m2
01:18 49.3 °F 46.6 °F 29.9 in NNW 2.2 mph 6 mph 90% 0 in 0 W/m2
01:23 48.9 °F 46 °F 29.9 in NNW 3.1 mph 5.4 mph 90% 0 in 0 W/m2
01:28 48.7 °F 45.9 °F 29.9 in NW 2.2 mph 4.5 mph 90% 0 in 0 W/m2
01:33 48.6 °F 45.9 °F 29.9 in NW 3.1 mph 4.5 mph 90% 0 in 0 W/m2
01:38 48.4 °F 45.9 °F 29.9 in NW 3.8 mph 5.4 mph 91% 0 in 0 W/m2
01:43 48.4 °F 45.9 °F 29.9 in NW 3.1 mph 5.4 mph 91% 0 in 0 W/m2
01:48 48.4 °F 46.2 °F 29.9 in NNW 3.1 mph 5.4 mph 92% 0 in 0 W/m2
01:53 48.2 °F 46 °F 29.9 in NNW 3.1 mph 5.4 mph 92% 0 in 0 W/m2
01:58 48.4 °F 46.2 °F 29.9 in NNW 2.2 mph 5.4 mph 92% 0 in 0 W/m2
02:03 48.4 °F 46.6 °F 29.9 in NNW 2.2 mph 6.9 mph 93% 0 in 0 W/m2
02:08 48.4 °F 46.6 °F 29.9 in NW 3.1 mph 6.9 mph 93% 0 in 0 W/m2
02:13 48.6 °F 46.6 °F 29.9 in NNW 3.8 mph 6 mph 93% 0 in 0 W/m2
02:18 48.6 °F 46.6 °F 29.9 in NW 4.5 mph 6.9 mph 93% 0 in 0 W/m2
02:23 48.4 °F 46.2 °F 29.9 in NW 3.8 mph 6.9 mph 92% 0 in 0 W/m2
02:28 48 °F 46 °F 29.9 in NW 3.8 mph 6 mph 93% 0 in 0 W/m2
02:33 47.8 °F 45.9 °F 29.9 in NW 3.8 mph 6 mph 93% 0 in 0 W/m2
02:38 47.7 °F 46 °F 29.9 in NNW 3.1 mph 5.4 mph 94% 0 in 0 W/m2
02:43 47.7 °F 46 °F 29.9 in NNW 3.1 mph 5.4 mph 94% 0 in 0 W/m2
02:48 47.7 °F 46.2 °F 29.9 in NW 2.2 mph 5.4 mph 95% 0 in 0 W/m2
02:53 47.5 °F 46 °F 29.9 in NW 2.2 mph 4.5 mph 95% 0 in 0 W/m2
02:58 47.3 °F 45.9 °F 29.9 in NW 1.6 mph 4.5 mph 95% 0 in 0 W/m2
03:03 47.3 °F 45.9 °F 29.9 in NW 3.1 mph 5.4 mph 95% 0 in 0 W/m2
03:08 47.5 °F 46 °F 29.9 in NNW 3.1 mph 6.9 mph 95% 0 in 0 W/m2
03:13 47.7 °F 46.6 °F 29.9 in NNW 3.1 mph 6.9 mph 96% 0 in 0 W/m2
03:18 47.8 °F 46.8 °F 29.9 in NW 3.1 mph 6 mph 96% 0 in 0 W/m2
03:23 47.8 °F 46.8 °F 29.9 in NW 3.8 mph 6 mph 96% 0 in 0 W/m2
03:28 47.8 °F 46.6 °F 29.9 in NW 3.1 mph 6 mph 95% 0 in 0 W/m2
03:33 47.7 °F 46.2 °F 29.9 in NNW 1.6 mph 5.4 mph 95% 0 in 0 W/m2
03:38 47.7 °F 46.2 °F 29.9 in NNW 2.2 mph 5.4 mph 95% 0 in 0 W/m2
03:43 47.5 °F 46 °F 29.9 in NNW 1.6 mph 3.8 mph 95% 0 in 0 W/m2
03:48 47.3 °F 45.9 °F 29.9 in NNW 2.2 mph 4.5 mph 95% 0 in 0 W/m2
03:53 47.1 °F 45.9 °F 29.9 in NNW 2.2 mph 4.5 mph 95% 0 in 0 W/m2
03:58 47.1 °F 45.9 °F 29.9 in NNW 1.6 mph 6 mph 95% 0 in 0 W/m2
04:03 46.9 °F 45.7 °F 29.9 in NNW 1.6 mph 6 mph 95% 0 in 0 W/m2
04:08 46.9 °F 45.7 °F 29.9 in NW 3.1 mph 3.8 mph 95% 0 in 0 W/m2
04:13 46.8 °F 45.7 °F 29.9 in NNW 2.2 mph 3.8 mph 96% 0 in 0 W/m2
04:33 46.4 °F 45.3 °F 29.9 in North 1.6 mph 3.8 mph 96% 0 in 0 W/m2
04:43 46.6 °F 45.5 °F 29.9 in NNW 3.1 mph 6.9 mph 96% 0 in 0 W/m2
04:48 46.6 °F 45.5 °F 29.9 in NNW 3.8 mph 6.9 mph 96% 0 in 0 W/m2
04:53 46.6 °F 45.5 °F 29.9 in North 3.1 mph 6 mph 96% 0 in 0 W/m2
04:58 46.6 °F 45.5 °F 29.9 in North 3.8 mph 5.4 mph 96% 0 in 0 W/m2
05:03 46.6 °F 45.5 °F 29.9 in NNW 3.1 mph 6.9 mph 96% 0 in 0 W/m2
05:08 46.6 °F 45.5 °F 29.9 in NNW 3.1 mph 6.9 mph 96% 0 in 0 W/m2
05:13 46.4 °F 45.3 °F 29.9 in NNW 3.8 mph 7.6 mph 96% 0 in 0 W/m2
05:18 46.4 °F 45.3 °F 29.9 in NNW 3.8 mph 8.3 mph 96% 0 in 0 W/m2
05:23 46.4 °F 45.3 °F 29.9 in North 3.8 mph 8.3 mph 96% 0 in 0 W/m2
05:28 46.4 °F 45.3 °F 29.9 in NNW 4.5 mph 7.6 mph 96% 0 in 0 W/m2
05:33 46.4 °F 45.3 °F 29.9 in NW 4.5 mph 7.6 mph 96% 0 in 0 W/m2
05:43 46.2 °F 45.1 °F 29.9 in NNW 5.4 mph 8.3 mph 96% 0 in 0 W/m2
05:49 46 °F 45 °F 29.9 in NW 3.1 mph 6.9 mph 96% 0 in 0 W/m2
05:54 45.9 °F 44.8 °F 29.9 in NW 3.1 mph 6.9 mph 96% 0 in 0 W/m2
05:59 45.7 °F 44.6 °F 29.9 in NNW 2.2 mph 6 mph 96% 0 in 0 W/m2
06:04 45.5 °F 44.4 °F 29.9 in NNW 2.2 mph 5.4 mph 96% 0 in 1 W/m2
06:09 45.3 °F 44.4 °F 29.9 in NNW 3.1 mph 5.4 mph 97% 0 in 4 W/m2
06:14 45.1 °F 44.2 °F 29.9 in NNW 3.8 mph 6.9 mph 97% 0 in 6 W/m2
06:19 45 °F 44.2 °F 29.9 in NW 3.1 mph 6.9 mph 97% 0 in 9 W/m2
06:24 45.1 °F 44.2 °F 29.9 in NW 4.5 mph 6.9 mph 97% 0 in 13 W/m2
06:29 45.3 °F 44.4 °F 29.9 in NW 4.5 mph 7.6 mph 97% 0 in 15 W/m2
06:34 45.5 °F 44.8 °F 29.9 in NW 4.5 mph 7.6 mph 97% 0 in 19 W/m2
06:39 45.9 °F 45.1 °F 29.9 in NW 6.9 mph 8.3 mph 97% 0 in 38 W/m2
06:44 46.4 °F 45.7 °F 29.9 in NNW 3.1 mph 8.3 mph 97% 0 in 53 W/m2
06:49 47.1 °F 46.2 °F 30 in NNW 4.5 mph 8.3 mph 97% 0 in 60 W/m2
06:54 47.7 °F 46.6 °F 30 in NNW 4.5 mph 7.6 mph 96% 0 in 66 W/m2
06:59 48.4 °F 46.6 °F 30 in NNW 6.9 mph 9.2 mph 93% 0 in 71 W/m2
07:04 48.6 °F 45.9 °F 30 in NNW 6 mph 9.2 mph 90% 0 in 77 W/m2
07:09 48.9 °F 45.5 °F 30 in NNW 5.4 mph 9.2 mph 88% 0 in 83 W/m2
07:14 49.1 °F 45.7 °F 30 in NNW 4.5 mph 8.3 mph 88% 0 in 93 W/m2
07:19 49.8 °F 46 °F 30 in NNW 5.4 mph 9.2 mph 87% 0 in 105 W/m2
07:24 50.2 °F 45.9 °F 30 in NNW 5.4 mph 9.2 mph 85% 0 in 118 W/m2
07:29 50.7 °F 46.4 °F 30 in NNW 3.1 mph 9.2 mph 85% 0 in 132 W/m2
07:34 51.1 °F 46.4 °F 30 in NNW 5.4 mph 9.2 mph 84% 0 in 144 W/m2
07:39 51.6 °F 46.6 °F 30 in NW 5.4 mph 7.6 mph 83% 0 in 159 W/m2
07:44 51.8 °F 46.2 °F 30 in NW 5.4 mph 9.2 mph 81% 0 in 170 W/m2
07:49 52.7 °F 46.9 °F 30 in NNW 3.8 mph 9.2 mph 81% 0 in 182 W/m2
07:54 53.1 °F 46.8 °F 30 in NNW 4.5 mph 7.6 mph 79% 0 in 195 W/m2
07:59 53.8 °F 47.1 °F 30 in NNW 4.5 mph 7.6 mph 78% 0 in 207 W/m2
08:04 54.5 °F 47.5 °F 30 in NNW 4.5 mph 6.9 mph 77% 0 in 220 W/m2
08:09 54.5 °F 46.8 °F 30 in North 3.8 mph 7.6 mph 75% 0 in 232 W/m2
08:14 54.9 °F 47.1 °F 30 in North 3.8 mph 7.6 mph 75% 0 in 245 W/m2
08:19 55.8 °F 48 °F 30 in NNW 3.1 mph 6.9 mph 75% 0 in 258 W/m2
08:24 56.7 °F 48.7 °F 30 in NNW 3.8 mph 6.9 mph 75% 0 in 274 W/m2
08:29 57.4 °F 48.7 °F 30 in NW 4.5 mph 6.9 mph 73% 0 in 287 W/m2
08:34 57.9 °F 48.6 °F 30 in NW 4.5 mph 6.9 mph 71% 0 in 302 W/m2
08:39 57.9 °F 48.6 °F 30 in NW 3.8 mph 7.6 mph 71% 0 in 315 W/m2
08:44 59 °F 49.3 °F 30 in NNW 3.8 mph 7.6 mph 70% 0 in 332 W/m2
08:49 60.1 °F 49.8 °F 30 in NNW 3.8 mph 7.6 mph 69% 0 in 350 W/m2
08:54 60.8 °F 49.5 °F 30 in NNW 2.2 mph 6.9 mph 66% 0 in 366 W/m2
08:59 62.1 °F 50.5 °F 30 in North 3.1 mph 6 mph 66% 0 in 386 W/m2
09:04 63.5 °F 50.7 °F 30 in NNW 2.2 mph 5.4 mph 63% 0 in 406 W/m2
09:09 64.8 °F 51.1 °F 30 in NNW 2.2 mph 6 mph 61% 0 in 429 W/m2
09:14 65.3 °F 51.1 °F 30 in NNW 2.2 mph 6 mph 60% 0 in 452 W/m2
09:19 66.2 °F 50.5 °F 30 in NNW 0.7 mph 6.9 mph 57% 0 in 469 W/m2
09:24 67.6 °F 51.4 °F 30 in North 3.1 mph 8.3 mph 56% 0 in 511 W/m2
09:29 68 °F 50.7 °F 30 in North 3.8 mph 8.3 mph 54% 0 in 569 W/m2
09:34 68.2 °F 51.4 °F 30 in North 6.9 mph 9.2 mph 55% 0 in 553 W/m2
09:39 68 °F 50.7 °F 30 in North 4.5 mph 9.8 mph 54% 0 in 562 W/m2
09:44 67.8 °F 51.1 °F 30 in North 4.5 mph 9.8 mph 55% 0 in 571 W/m2
09:49 68 °F 50.7 °F 30 in NNW 4.5 mph 11.4 mph 54% 0 in 572 W/m2
09:54 68 °F 50.4 °F 30 in North 6 mph 11.4 mph 53% 0 in 604 W/m2
09:59 68 °F 50.7 °F 30 in North 7.6 mph 10.7 mph 54% 0 in 626 W/m2
10:04 68.4 °F 50.5 °F 30 in North 7.6 mph 9.8 mph 53% 0 in 644 W/m2
10:09 68.7 °F 50.9 °F 30 in NNW 5.4 mph 10.7 mph 53% 0 in 674 W/m2
10:14 69.3 °F 50.9 °F 30 in NNW 3.8 mph 10.7 mph 52% 0 in 721 W/m2
10:19 69.8 °F 51.4 °F 30 in North 4.5 mph 8.3 mph 52% 0 in 783 W/m2
10:24 70.3 °F 50.4 °F 30 in North 4.5 mph 12.1 mph 49% 0 in 771 W/m2
10:29 71.8 °F 49.8 °F 30 in North 3.1 mph 12.1 mph 46% 0 in 498 W/m2
10:34 70.3 °F 49.6 °F 30 in NW 5.4 mph 9.8 mph 48% 0 in 359 W/m2
10:39 70.2 °F 50.2 °F 30 in Calm   9.8 mph 49% 0 in 433 W/m2
10:44 71.2 °F 50 °F 30 in NE 2.2 mph 6 mph 47% 0 in 382 W/m2
10:49 70.7 °F 49.5 °F 30 in North 1.6 mph 8.3 mph 47% 0 in 601 W/m2
10:54 71.1 °F 50.4 °F 29.9 in NNE 5.4 mph 8.3 mph 48% 0 in 752 W/m2
10:59 71.4 °F 50.2 °F 29.9 in NNE 3.1 mph 9.2 mph 47% 0 in 736 W/m2
11:04 71.8 °F 50.5 °F 29.9 in North 3.1 mph 9.2 mph 47% 0 in 678 W/m2
11:09 72.9 °F 50.4 °F 29.9 in NNE 2.2 mph 9.2 mph 45% 0 in 320 W/m2
11:14 73 °F 50.5 °F 29.9 in NE 6 mph 9.8 mph 45% 0 in 679 W/m2
11:19 73 °F 50.5 °F 29.9 in NNE 5.4 mph 10.7 mph 45% 0 in 879 W/m2
11:24 74.1 °F 51.4 °F 29.9 in NNE 1.6 mph 10.7 mph 45% 0 in 355 W/m2
11:29 74.8 °F 52.2 °F 29.9 in NNE 4.5 mph 7.6 mph 45% 0 in 281 W/m2
11:34 73 °F 49.8 °F 29.9 in NW 1.6 mph 6 mph 44% 0 in 279 W/m2
11:39 74.1 °F 52 °F 29.9 in West 1.6 mph 6 mph 46% 0 in 212 W/m2
11:44 73.4 °F 50.7 °F 29.9 in NW 1.6 mph 3.1 mph 45% 0 in 391 W/m2
11:49 74.5 °F 53.1 °F 29.9 in Calm   3.1 mph 47% 0 in 1075 W/m2
12:05 74.3 °F 53.4 °F 29.9 in SSE 3.1 mph 8.3 mph 48% 0 in 714 W/m2
12:10 75 °F 54.7 °F 29.9 in South 4.5 mph 6 mph 49% 0 in 530 W/m2
12:15 75 °F 53.4 °F 29.9 in SSW 3.8 mph 7.6 mph 47% 0 in 457 W/m2
12:21 73.2 °F 44.1 °F 29.9 in NW 6.9 mph 11.4 mph 35% 0 in 473 W/m2
12:26 73.6 °F 45 °F 29.9 in North 3.1 mph 11.4 mph 36% 0 in 398 W/m2
12:31 73.9 °F 46 °F 29.9 in North 4.5 mph 12.1 mph 37% 0 in 399 W/m2
12:36 73.9 °F 50.2 °F 29.9 in NNW 5.4 mph 12.1 mph 43% 0 in 362 W/m2
12:41 72.1 °F 51.4 °F 29.9 in WNW 7.6 mph 14.5 mph 48% 0 in 303 W/m2
12:46 70.9 °F 50.7 °F 29.9 in WSW 3.8 mph 14.5 mph 49% 0 in 344 W/m2
12:51 71.6 °F 50.4 °F 29.9 in SSW 1.6 mph 11.4 mph 47% 0 in 387 W/m2
12:56 72.1 °F 50.7 °F 29.9 in SSE 4.5 mph 5.4 mph 47% 0 in 319 W/m2
13:01 71.8 °F 49.8 °F 29.9 in SE 3.8 mph 10.7 mph 46% 0 in 296 W/m2
13:06 71.4 °F 48.4 °F 29.9 in NNE 7.6 mph 12.1 mph 44% 0 in 306 W/m2
13:11 72.3 °F 50.4 °F 29.9 in NNW 2.2 mph 12.1 mph 46% 0 in 297 W/m2
13:16 73 °F 47.3 °F 29.9 in NNE 3.1 mph 7.6 mph 40% 0 in 328 W/m2
13:21 73.2 °F 46.8 °F 29.9 in NNE 6.9 mph 13.6 mph 39% 0 in 397 W/m2
13:26 73.2 °F 46.8 °F 29.9 in North 6 mph 13.6 mph 39% 0 in 352 W/m2
13:42 74.7 °F 46.8 °F 29.9 in NNE 9.8 mph 13 mph 37% 0 in 763 W/m2
13:47 74.7 °F 46.8 °F 29.9 in NNE 3.8 mph 13 mph 37% 0 in 494 W/m2
13:52 74.7 °F 46.8 °F 29.9 in NNE 3.8 mph 13.6 mph 37% 0 in 424 W/m2
13:57 75 °F 46.9 °F 29.9 in NNE 7.6 mph 13.6 mph 37% 0 in 423 W/m2
14:02 74.7 °F 48 °F 29.9 in North 6 mph 13 mph 39% 0 in 494 W/m2
14:07 75.6 °F 46 °F 29.9 in North 6 mph 15.9 mph 35% 0 in 622 W/m2
14:12 75.7 °F 46.2 °F 29.9 in NE 5.4 mph 15.9 mph 35% 0 in 682 W/m2
14:17 76.3 °F 46.8 °F 29.9 in NE 8.3 mph 12.1 mph 35% 0 in 594 W/m2
14:22 76.1 °F 46.6 °F 29.9 in NNE 5.4 mph 12.1 mph 35% 0 in 578 W/m2
14:27 75.4 °F 45.9 °F 29.9 in North 7.6 mph 15.2 mph 35% 0 in 453 W/m2
14:32 74.3 °F 45.7 °F 29.9 in NNW 3.8 mph 15.2 mph 36% 0 in 472 W/m2
14:37 75 °F 46.9 °F 29.9 in NNW 4.5 mph 15.2 mph 37% 0 in 390 W/m2
14:42 75.4 °F 46.6 °F 29.9 in NNE 7.6 mph 10.7 mph 36% 0 in 398 W/m2
14:47 75.2 °F 46.4 °F 29.9 in NNE 3.8 mph 10.7 mph 36% 0 in 418 W/m2
14:52 74.8 °F 46.9 °F 29.9 in North 4.5 mph 14.5 mph 37% 0 in 364 W/m2
14:57 75.4 °F 46.6 °F 29.9 in North 5.4 mph 14.5 mph 36% 0 in 417 W/m2
15:02 75.4 °F 45.9 °F 29.9 in NNE 5.4 mph 12.1 mph 35% 0 in 426 W/m2
15:07 75.2 °F 45.7 °F 29.9 in NE 6 mph 13.6 mph 35% 0 in 452 W/m2
15:12 75 °F 46.9 °F 29.9 in NNE 9.2 mph 13.6 mph 37% 0 in 512 W/m2
15:17 75 °F 46.2 °F 29.9 in North 6.9 mph 14.5 mph 36% 0 in 434 W/m2
15:22 75 °F 46.9 °F 29.9 in North 6 mph 15.9 mph 37% 0 in 394 W/m2
15:27 74.7 °F 46.8 °F 29.9 in NNE 6.9 mph 15.9 mph 37% 0 in 262 W/m2
15:32 74.1 °F 47.7 °F 29.9 in NNE 8.3 mph 13.6 mph 39% 0 in 198 W/m2
15:37 73.6 °F 47.1 °F 29.9 in NNE 5.4 mph 13.6 mph 39% 0 in 155 W/m2
15:42 73.4 °F 48.4 °F 29.9 in NNE 11.4 mph 15.2 mph 41% 0 in 134 W/m2
15:47 72.7 °F 47.7 °F 29.9 in North 10.7 mph 15.2 mph 41% 0 in 133 W/m2
15:52 72.3 °F 48 °F 29.9 in North 7.6 mph 15.2 mph 42% 0 in 133 W/m2
15:57 72.5 °F 48.7 °F 29.9 in NNE 6 mph 15.2 mph 43% 0 in 132 W/m2
16:02 72.3 °F 48.6 °F 29.8 in NNE 3.1 mph 11.4 mph 43% 0 in 183 W/m2
16:07 72.5 °F 48.7 °F 29.8 in NNE 7.6 mph 16.8 mph 43% 0 in 247 W/m2
16:12 72.7 °F 49.5 °F 29.9 in NNE 7.6 mph 16.8 mph 44% 0 in 226 W/m2
16:17 72.7 °F 49.5 °F 29.8 in NNE 8.3 mph 17.4 mph 44% 0 in 259 W/m2
16:22 72.3 °F 49.8 °F 29.8 in North 6.9 mph 17.4 mph 45% 0 in 207 W/m2
16:27 71.8 °F 49.3 °F 29.8 in NNW 6.9 mph 17.4 mph 45% 0 in 178 W/m2
16:32 71.4 °F 50.2 °F 29.8 in NW 10.7 mph 17.4 mph 47% 0 in 171 W/m2
16:37 71.2 °F 50 °F 29.8 in NW 7.6 mph 17.4 mph 47% 0 in 162 W/m2
16:42 71.2 °F 50 °F 29.8 in NNW 7.6 mph 16.8 mph 47% 0 in 172 W/m2
16:48 71.2 °F 50 °F 29.8 in NNW 7.6 mph 16.8 mph 47% 0 in 250 W/m2
17:05 70.7 °F 49.5 °F 29.8 in North 11.4 mph 22.8 mph 47% 0 in 156 W/m2
17:10 70.5 °F 49.3 °F 29.8 in North 8.3 mph 17.4 mph 47% 0 in 155 W/m2
17:15 70.2 °F 49.6 °F 29.8 in North 12.1 mph 20.6 mph 48% 0 in 132 W/m2
17:20 69.8 °F 49.3 °F 29.8 in NNW 7.6 mph 20.6 mph 48% 0 in 91 W/m2
17:25 69.6 °F 49.6 °F 29.8 in NNW 8.3 mph 19 mph 49% 0 in 91 W/m2
17:30 69.4 °F 50 °F 29.8 in NNW 6 mph 19.7 mph 50% 0 in 95 W/m2
17:35 69.3 °F 49.8 °F 29.8 in NW 8.3 mph 19.7 mph 50% 0 in 74 W/m2
17:40 69.3 °F 49.8 °F 29.8 in NNW 5.4 mph 15.9 mph 50% 0 in 74 W/m2
17:45 69.1 °F 50.2 °F 29.8 in North 6.9 mph 14.5 mph 51% 0 in 65 W/m2
17:50 69.1 °F 50.2 °F 29.8 in North 9.8 mph 14.5 mph 51% 0 in 56 W/m2
17:55 68.9 °F 49.5 °F 29.8 in North 11.4 mph 15.2 mph 50% 0 in 48 W/m2
18:00 68.7 °F 49.5 °F 29.8 in North 8.3 mph 15.2 mph 50% 0 in 51 W/m2
18:05 68.5 °F 49.6 °F 29.8 in NNW 6.9 mph 16.8 mph 51% 0 in 54 W/m2
18:10 68.5 °F 49.6 °F 29.8 in NNW 7.6 mph 16.8 mph 51% 0 in 53 W/m2
18:15 68.5 °F 49.6 °F 29.8 in North 5.4 mph 12.1 mph 51% 0 in 48 W/m2
18:20 68.4 °F 49.6 °F 29.8 in North 6.9 mph 14.5 mph 51% 0 in 40 W/m2
18:25 68.4 °F 49.6 °F 29.8 in North 7.6 mph 16.8 mph 51% 0 in 41 W/m2
18:30 68.4 °F 50.2 °F 29.8 in NNE 11.4 mph 16.8 mph 52% 0 in 43 W/m2
18:35 68.2 °F 50.4 °F 29.8 in NNE 7.6 mph 16.8 mph 53% 0 in 30 W/m2
18:40 68 °F 50.4 °F 29.8 in North 5.4 mph 13.6 mph 53% 0 in 22 W/m2
18:46 68 °F 50.4 °F 29.8 in NNE 8.3 mph 17.4 mph 53% 0 in 14 W/m2
18:51 67.8 °F 50.5 °F 29.8 in NNE 9.2 mph 17.4 mph 54% 0 in 13 W/m2
18:56 67.8 °F 50.5 °F 29.8 in NE 9.2 mph 17.4 mph 54% 0 in 15 W/m2
19:01 67.8 °F 50.5 °F 29.8 in NE 6.9 mph 17.4 mph 54% 0 in 20 W/m2
19:06 67.6 °F 50.4 °F 29.8 in NNE 6.9 mph 15.2 mph 54% 0 in 15 W/m2
19:11 67.6 °F 50.4 °F 29.8 in NNE 8.3 mph 12.1 mph 54% 0 in 17 W/m2
19:16 67.5 °F 50.4 °F 29.8 in NNE 6 mph 12.1 mph 54% 0 in 15 W/m2
19:21 67.6 °F 50.4 °F 29.8 in NNE 8.3 mph 13.6 mph 54% 0 in 13 W/m2
19:26 67.6 °F 50.4 °F 29.8 in NNE 6 mph 13.6 mph 54% 0 in 10 W/m2
19:31 67.5 °F 50.7 °F 29.8 in NNE 5.4 mph 13 mph 55% 0 in 10 W/m2
19:36 67.5 °F 50.7 °F 29.8 in NE 4.5 mph 13 mph 55% 0 in 8 W/m2
19:41 67.5 °F 50.7 °F 29.8 in NNE 4.5 mph 13.6 mph 55% 0 in 5 W/m2
19:46 67.5 °F 50.7 °F 29.8 in NNE 3.1 mph 13.6 mph 55% 0 in 4 W/m2
19:51 67.3 °F 50.5 °F 29.8 in NE 6 mph 9.8 mph 55% 0 in 3 W/m2
19:56 67.3 °F 50.5 °F 29.8 in NNE 9.8 mph 13.6 mph 55% 0 in 2 W/m2
20:01 67.5 °F 50.7 °F 29.8 in NNE 6.9 mph 17.4 mph 55% 0 in 3 W/m2
20:06 67.3 °F 50.5 °F 29.8 in NNE 6 mph 17.4 mph 55% 0 in 6 W/m2
20:11 67.3 °F 50.5 °F 29.8 in NE 4.5 mph 14.5 mph 55% 0 in 7 W/m2
20:16 67.1 °F 50.4 °F 29.8 in NE 6 mph 20.6 mph 55% 0 in 4 W/m2
20:21 66.9 °F 50.2 °F 29.8 in NNE 7.6 mph 20.6 mph 55% 0 in 0 W/m2
20:26 66.9 °F 50.2 °F 29.8 in NE 3.8 mph 13.6 mph 55% 0 in 0 W/m2
20:32 66.9 °F 50.2 °F 29.8 in NE 7.6 mph 12.1 mph 55% 0 in 0 W/m2
20:37 66.7 °F 50.2 °F 29.8 in NE 7.6 mph 17.4 mph 55% 0 in 0 W/m2
20:42 66.7 °F 50.2 °F 29.8 in NNE 10.7 mph 17.4 mph 55% 0 in 0 W/m2
20:47 66.7 °F 50.5 °F 29.8 in NNE 9.8 mph 17.4 mph 56% 0 in 0 W/m2
20:52 66.6 °F 50.4 °F 29.8 in NE 9.2 mph 17.4 mph 56% 0 in 0 W/m2
20:57 66.4 °F 50.2 °F 29.8 in NE 6 mph 15.9 mph 56% 0 in 0 W/m2
21:02 66.4 °F 50.2 °F 29.8 in NE 11.4 mph 15.9 mph 56% 0 in 0 W/m2
21:07 66.6 °F 50.4 °F 29.8 in NNE 6 mph 22.8 mph 56% 0 in 0 W/m2
21:12 66.4 °F 50.7 °F 29.8 in NNE 6.9 mph 22.8 mph 57% 0 in 0 W/m2
21:17 66.2 °F 51.1 °F 29.8 in NE 6 mph 13 mph 58% 0 in 0 W/m2
21:22 66 °F 51.3 °F 29.7 in NE 5.4 mph 19 mph 59% 0 in 0 W/m2
21:27 65.8 °F 51.1 °F 29.8 in NE 4.5 mph 19 mph 59% 0 in 0 W/m2
21:32 66 °F 51.3 °F 29.8 in NNE 10.7 mph 15.9 mph 59% 0 in 0 W/m2
21:38 66.2 °F 50.5 °F 29.8 in North 8.3 mph 16.8 mph 57% 0 in 0 W/m2
21:43 66.2 °F 50.5 °F 29.8 in North 9.8 mph 20.6 mph 57% 0 in 0 W/m2
21:48 66.4 °F 50.7 °F 29.8 in North 6.9 mph 20.6 mph 57% 0 in 0 W/m2
21:53 66.4 °F 50.7 °F 29.8 in NNE 13.6 mph 19.7 mph 57% 0 in 0 W/m2
21:58 66.4 °F 50.7 °F 29.8 in NNE 6.9 mph 18.3 mph 57% 0 in 0 W/m2
22:03 66.4 °F 50.7 °F 29.8 in North 7.6 mph 24.4 mph 57% 0 in 0 W/m2
22:08 66.4 °F 50.7 °F 29.8 in NNE 9.2 mph 24.4 mph 57% 0 in 0 W/m2
22:13 66.4 °F 50.7 °F 29.7 in NE 6 mph 19.7 mph 57% 0 in 0 W/m2
22:18 66.2 °F 50.5 °F 29.7 in NE 6.9 mph 18.3 mph 57% 0 in 0 W/m2
22:23 66 °F 50.7 °F 29.7 in NE 5.4 mph 18.3 mph 58% 0 in 0 W/m2
22:28 66 °F 50.7 °F 29.7 in NNE 7.6 mph 15.2 mph 58% 0 in 0 W/m2
22:33 66.2 °F 50.5 °F 29.7 in NE 10.7 mph 25.9 mph 57% 0 in 0 W/m2
22:38 66.2 °F 50.2 °F 29.7 in NE 6 mph 25.9 mph 56% 0 in 0 W/m2
22:43 66.2 °F 50.2 °F 29.7 in North 4.5 mph 22.8 mph 56% 0 in 0 W/m2
22:48 66.2 °F 50.2 °F 29.7 in NNE 7.6 mph 13.6 mph 56% 0 in 0 W/m2
22:53 66.2 °F 50.2 °F 29.7 in NE 6.9 mph 13.6 mph 56% 0 in 0 W/m2
22:58 66.2 °F 50.2 °F 29.7 in NNE 4.5 mph 13 mph 56% 0 in 0 W/m2
23:03 66.2 °F 50.2 °F 29.7 in NNE 6 mph 15.2 mph 56% 0 in 0 W/m2
23:08 66.2 °F 50.2 °F 29.7 in NNE 5.4 mph 16.8 mph 56% 0 in 0 W/m2
23:13 66.2 °F 50.2 °F 29.7 in NNE 10.7 mph 17.4 mph 56% 0 in 0 W/m2
23:18 66.2 °F 50.2 °F 29.7 in NNE 9.2 mph 18.3 mph 56% 0 in 0 W/m2
23:23 66.2 °F 50.2 °F 29.7 in NE 6 mph 18.3 mph 56% 0 in 0 W/m2
23:28 66.2 °F 50.2 °F 29.7 in NNE 9.8 mph 18.3 mph 56% 0 in 0 W/m2
23:33 66.2 °F 50.2 °F 29.7 in North 4.5 mph 18.3 mph 56% 0 in 0 W/m2
23:38 66 °F 50.4 °F 29.7 in NNE 4.5 mph 15.2 mph 57% 0 in 0 W/m2
23:43 66 °F 50.4 °F 29.7 in NNE 6.9 mph 16.8 mph 57% 0 in 0 W/m2
23:48 65.8 °F 50.7 °F 29.7 in NE 8.3 mph 16.8 mph 58% 0 in 0 W/m2
23:53 65.7 °F 51.1 °F 29.7 in NE 7.6 mph 15.2 mph 59% 0 in 0 W/m2
23:58 65.3 °F 51.1 °F 29.7 in NE 6 mph 15.2 mph 60% 0 in 0 W/m2
Northern Hawkes Bay. New Zealand Historic Data
Compliments of Weather Underground - 2.25 mb